createdAt,value
2018-04-13T00:01:30.055Z,86.77
2018-04-13T00:03:58.487Z,92.93
2018-04-13T00:06:26.144Z,89.90
2018-04-13T00:08:53.739Z,86.90
2018-04-13T00:11:21.345Z,83.47
2018-04-13T00:13:49.753Z,88.30
2018-04-13T00:16:17.849Z,85.23
2018-04-13T00:18:46.264Z,90.87
2018-04-13T00:21:13.846Z,94.23
2018-04-13T00:23:42.845Z,92.20
2018-04-13T00:26:11.244Z,99.67
2018-04-13T00:28:38.880Z,86.70
2018-04-13T00:31:06.771Z,98.33
2018-04-13T00:33:35.132Z,85.70
2018-04-13T00:36:02.808Z,87.17
2018-04-13T00:38:30.423Z,86.23
2018-04-13T00:40:58.941Z,90.50
2018-04-13T00:43:26.549Z,92.83
2018-04-13T00:45:54.173Z,92.87
2018-04-13T00:48:21.765Z,86.53
2018-04-13T00:50:49.347Z,88.93
2018-04-13T00:53:28.879Z,94.33
2018-04-13T00:55:57.239Z,90.30
2018-04-13T00:58:24.827Z,98.50
2018-04-13T01:00:53.831Z,97.77
2018-04-13T01:03:22.315Z,99.50
2018-04-13T01:05:50.679Z,104.60
2018-04-13T01:08:18.262Z,97.50
2018-04-13T01:10:46.634Z,94.47
2018-04-13T01:13:14.982Z,107.93
2018-04-13T01:15:43.290Z,108.20
2018-04-13T01:18:10.894Z,110.43
2018-04-13T01:20:38.469Z,104.43
2018-04-13T01:23:06.080Z,107.00
2018-04-13T01:25:33.668Z,104.80
2018-04-13T01:28:02.008Z,104.30
2018-04-13T01:30:29.606Z,99.40
2018-04-13T01:32:57.952Z,101.07
2018-04-13T01:35:25.537Z,96.70
2018-04-13T01:37:53.921Z,93.97
2018-04-13T01:40:21.507Z,93.07
2018-04-13T01:42:49.832Z,99.20
2018-04-13T01:45:17.419Z,96.77
2018-04-13T01:47:45.114Z,91.70
2018-04-13T01:50:13.488Z,94.00
2018-04-13T01:52:41.084Z,86.40
2018-04-13T01:55:08.668Z,91.10
2018-04-13T01:57:36.246Z,91.60
2018-04-13T02:00:03.859Z,86.50
2018-04-13T02:02:31.462Z,90.83
2018-04-13T02:04:59.034Z,83.50
2018-04-13T02:07:26.608Z,84.37
2018-04-13T02:09:54.175Z,85.23
2018-04-13T02:12:22.620Z,83.33
2018-04-13T02:14:50.183Z,84.40
2018-04-13T02:17:17.733Z,87.97
2018-04-13T02:19:46.115Z,77.97
2018-04-13T02:22:14.461Z,76.83
2018-04-13T02:24:42.020Z,83.67
2018-04-13T02:27:09.583Z,76.43
2018-04-13T02:29:37.159Z,76.27
2018-04-13T02:32:04.742Z,72.40
2018-04-13T02:34:32.425Z,76.43
2018-04-13T02:37:00.747Z,74.27
2018-04-13T02:39:28.623Z,72.57
2018-04-13T02:41:57.022Z,69.87
2018-04-13T02:44:24.604Z,74.10
2018-04-13T02:46:52.190Z,72.07
2018-04-13T02:49:20.550Z,71.77
2018-04-13T02:51:48.138Z,78.93
2018-04-13T02:54:16.488Z,68.53
2018-04-13T02:56:44.091Z,76.90
2018-04-13T02:59:12.443Z,71.50
2018-04-13T03:01:40.017Z,71.53
2018-04-13T03:04:07.620Z,70.73
2018-04-13T03:06:35.203Z,70.77
2018-04-13T03:09:02.800Z,69.87
2018-04-13T03:11:30.363Z,67.50
2018-04-13T03:13:57.931Z,70.17
2018-04-13T03:16:25.575Z,70.73
2018-04-13T03:18:53.184Z,78.37
2018-04-13T03:21:21.537Z,71.37
2018-04-13T03:23:49.100Z,68.00
2018-04-13T03:26:16.682Z,64.93
2018-04-13T03:28:44.255Z,65.73
2018-04-13T03:31:11.828Z,63.73
2018-04-13T03:33:40.168Z,63.23
2018-04-13T03:36:07.749Z,63.23
2018-04-13T03:38:35.330Z,64.07
2018-04-13T03:41:02.902Z,63.50
2018-04-13T03:43:30.471Z,64.13
2018-04-13T03:45:59.023Z,62.30
2018-04-13T03:48:26.589Z,63.93
2018-04-13T03:50:54.153Z,60.73
2018-04-13T03:53:21.725Z,60.73
2018-04-13T03:55:49.302Z,62.87
2018-04-13T03:58:16.882Z,64.43
2018-04-13T04:00:45.222Z,63.70
2018-04-13T04:03:12.793Z,59.50
2018-04-13T04:05:40.476Z,59.27
2018-04-13T04:08:08.043Z,52.97
2018-04-13T04:10:35.626Z,54.53
2018-04-13T04:13:04.021Z,53.33
2018-04-13T04:15:31.583Z,47.90
2018-04-13T04:17:59.174Z,44.13
2018-04-13T04:20:41.000Z,42.70
2018-04-13T04:23:20.314Z,39.73
2018-04-13T04:25:59.592Z,35.93
2018-04-13T04:28:28.386Z,34.03
2018-04-13T04:30:55.976Z,32.07
2018-04-13T04:33:23.764Z,27.27
2018-04-13T04:35:51.374Z,28.70
2018-04-13T04:38:18.980Z,27.97
2018-04-13T04:40:46.551Z,28.13
2018-04-13T04:43:14.172Z,30.57
2018-04-13T04:45:41.729Z,32.13
2018-04-13T04:48:09.341Z,40.77
2018-04-13T04:50:36.959Z,48.23
2018-04-13T04:53:04.540Z,46.53
2018-04-13T04:55:32.900Z,49.23
2018-04-13T04:58:00.487Z,53.90
2018-04-13T05:00:28.066Z,54.17
2018-04-13T05:02:56.395Z,60.20
2018-04-13T05:05:23.980Z,61.97
2018-04-13T05:07:51.540Z,61.83
2018-04-13T05:10:19.641Z,66.43
2018-04-13T05:12:48.833Z,56.27
2018-04-13T05:15:17.219Z,57.70
2018-04-13T05:17:44.796Z,62.20
2018-04-13T05:20:13.130Z,69.70
2018-04-13T05:22:40.698Z,73.20
2018-04-13T05:25:08.288Z,83.77
2018-04-13T05:27:35.870Z,81.23
2018-04-13T05:30:04.297Z,75.70
2018-04-13T05:32:31.897Z,74.20
2018-04-13T05:34:59.495Z,66.07
2018-04-13T05:37:28.292Z,67.83
2018-04-13T05:39:55.930Z,65.40
2018-04-13T05:42:23.516Z,58.07
2018-04-13T05:44:51.853Z,50.13
2018-04-13T05:47:19.446Z,43.27
2018-04-13T05:49:47.025Z,43.27
2018-04-13T05:52:15.358Z,42.63
2018-04-13T05:54:43.837Z,43.70
2018-04-13T05:57:11.401Z,43.33
2018-04-13T05:59:38.982Z,47.50
2018-04-13T06:02:06.604Z,51.83
2018-04-13T06:04:34.216Z,46.63
2018-04-13T06:07:01.831Z,52.87
2018-04-13T06:09:29.403Z,52.37
2018-04-13T06:11:57.727Z,47.93
2018-04-13T06:14:26.701Z,50.00
2018-04-13T06:16:54.329Z,49.37
2018-04-13T06:19:22.705Z,49.97
2018-04-13T06:21:50.363Z,53.57
2018-04-13T06:24:18.036Z,58.30
2018-04-13T06:26:45.589Z,62.13
2018-04-13T06:29:13.251Z,75.80
2018-04-13T06:31:40.926Z,64.67
2018-04-13T06:34:08.525Z,71.77
2018-04-13T06:36:36.218Z,65.77
2018-04-13T06:39:03.843Z,69.80
2018-04-13T06:41:32.175Z,65.83
2018-04-13T06:43:59.784Z,60.07
2018-04-13T06:46:27.413Z,67.00
2018-04-13T06:48:55.166Z,97.63
2018-04-13T06:51:22.776Z,131.67
2018-04-13T06:53:51.162Z,87.83
2018-04-13T06:56:19.364Z,89.10
2018-04-13T06:58:47.073Z,101.50
2018-04-13T07:01:14.732Z,108.30
2018-04-13T07:03:42.309Z,111.40
2018-04-13T07:06:09.937Z,146.20
2018-04-13T07:08:37.576Z,139.93
2018-04-13T07:11:05.191Z,136.50
2018-04-13T07:13:32.785Z,97.23
2018-04-13T07:16:00.441Z,119.83
2018-04-13T07:18:28.071Z,91.53
2018-04-13T07:20:55.694Z,92.87
2018-04-13T07:23:23.286Z,99.03
2018-04-13T07:25:51.639Z,91.27
2018-04-13T07:28:19.252Z,85.60
2018-04-13T07:30:46.879Z,78.33
2018-04-13T07:33:14.535Z,78.33
2018-04-13T07:35:42.702Z,77.50
2018-04-13T07:38:09.814Z,77.80
2018-04-13T07:40:37.403Z,74.10
2018-04-13T07:43:04.984Z,70.27
2018-04-13T07:45:32.595Z,71.57
2018-04-13T07:48:00.187Z,80.93
2018-04-13T07:50:27.771Z,75.23
2018-04-13T07:52:55.389Z,80.10
2018-04-13T07:55:23.095Z,85.30
2018-04-13T07:57:50.756Z,81.63
2018-04-13T08:00:18.410Z,82.37
2018-04-13T08:02:45.974Z,91.70
2018-04-13T08:05:13.597Z,94.93
2018-04-13T08:07:42.011Z,74.57
2018-04-13T08:10:09.601Z,102.93
2018-04-13T08:12:37.662Z,86.83
2018-04-13T08:15:04.827Z,87.23
2018-04-13T08:17:32.447Z,95.13
2018-04-13T08:20:01.163Z,91.70
2018-04-13T08:22:28.900Z,83.30
2018-04-13T08:24:57.295Z,88.33
2018-04-13T08:27:25.647Z,80.73
2018-04-13T08:29:53.307Z,81.70
2018-04-13T08:32:20.916Z,77.70
2018-04-13T08:34:48.560Z,82.03
2018-04-13T08:37:16.182Z,71.87
2018-04-13T08:39:44.679Z,71.07
2018-04-13T08:42:12.334Z,68.50
2018-04-13T08:44:39.989Z,71.33
2018-04-13T08:47:07.570Z,65.73
2018-04-13T08:49:35.182Z,62.97
2018-04-13T08:52:02.819Z,67.67
2018-04-13T08:54:30.421Z,63.60
2018-04-13T08:56:59.884Z,69.60
2018-04-13T08:59:27.511Z,63.60
2018-04-13T09:01:56.672Z,65.43
2018-04-13T09:04:24.268Z,64.00
2018-04-13T09:06:52.641Z,65.57
2018-04-13T09:09:21.090Z,62.03
2018-04-13T09:11:48.694Z,64.37
2018-04-13T09:14:16.326Z,65.40
2018-04-13T09:16:43.950Z,59.43
2018-04-13T09:19:11.572Z,60.23
2018-04-13T09:21:39.156Z,61.93
2018-04-13T09:24:07.557Z,63.67
2018-04-13T09:26:35.912Z,62.50
2018-04-13T09:29:03.510Z,62.70
2018-04-13T09:31:31.101Z,66.47
2018-04-13T09:33:58.687Z,64.57
2018-04-13T09:36:26.260Z,60.23
2018-04-13T09:38:53.879Z,63.73
2018-04-13T09:41:21.473Z,60.57
2018-04-13T09:43:49.081Z,64.47
2018-04-13T09:46:17.467Z,66.10
2018-04-13T09:48:45.803Z,60.00
2018-04-13T09:51:13.387Z,61.73
2018-04-13T09:53:41.027Z,63.03
2018-04-13T09:56:08.645Z,60.13
2018-04-13T09:58:36.274Z,57.20
2018-04-13T10:01:03.903Z,55.93
2018-04-13T10:03:37.233Z,56.13
2018-04-13T10:06:04.816Z,53.03
2018-04-13T10:08:32.422Z,58.10
2018-04-13T10:11:00.020Z,51.60
2018-04-13T10:13:27.614Z,49.10
2018-04-13T10:15:55.257Z,50.40
2018-04-13T10:18:22.890Z,49.83
2018-04-13T10:20:51.081Z,47.30
2018-04-13T10:23:18.805Z,49.00
2018-04-13T10:25:47.291Z,49.37
2018-04-13T10:28:15.546Z,42.57
2018-04-13T10:30:43.235Z,40.83
2018-04-13T10:33:10.856Z,43.83
2018-04-13T10:35:38.501Z,43.17
2018-04-13T10:38:06.143Z,43.00
2018-04-13T10:43:08.796Z,41.53
2018-04-13T10:45:38.662Z,43.37
2018-04-13T10:48:07.518Z,41.07
2018-04-13T10:50:35.260Z,40.00
2018-04-13T10:53:05.368Z,40.53
2018-04-13T10:55:33.708Z,42.07
2018-04-13T10:58:02.037Z,26.20
2018-04-13T11:00:29.674Z,22.87
2018-04-13T11:02:58.857Z,19.87
2018-04-13T11:05:26.542Z,21.27
2018-04-13T11:07:54.327Z,20.13
2018-04-13T11:10:24.446Z,20.53
2018-04-13T11:12:52.150Z,19.97
2018-04-13T11:15:20.133Z,21.07
2018-04-13T11:17:49.357Z,21.43
2018-04-13T11:20:17.818Z,24.27
2018-04-13T11:22:45.897Z,21.67
2018-04-13T11:25:13.868Z,20.97
2018-04-13T11:27:42.308Z,22.53
2018-04-13T11:30:10.707Z,22.67
2018-04-13T11:32:38.361Z,24.07
2018-04-13T11:35:06.749Z,21.37
2018-04-13T11:37:35.269Z,22.53
2018-04-13T11:40:02.929Z,22.70
2018-04-13T11:42:31.327Z,24.73
2018-04-13T11:44:58.955Z,25.57
2018-04-13T11:47:26.851Z,23.80
2018-04-13T11:49:54.528Z,25.13
2018-04-13T11:52:22.099Z,24.70
2018-04-13T11:54:49.719Z,25.87
2018-04-13T11:57:18.055Z,23.93
2018-04-13T11:59:45.653Z,24.13
2018-04-13T12:02:14.033Z,24.93
2018-04-13T12:04:42.395Z,24.63
2018-04-13T12:07:10.975Z,24.37
2018-04-13T12:09:38.689Z,23.60
2018-04-13T12:12:06.325Z,21.67
2018-04-13T12:14:34.648Z,22.93
2018-04-13T12:17:02.280Z,22.93
2018-04-13T12:19:30.671Z,19.63
2018-04-13T12:21:59.076Z,20.80
2018-04-13T12:24:26.719Z,21.80
2018-04-13T12:26:54.324Z,22.40
2018-04-13T12:29:21.931Z,20.93
2018-04-13T12:31:49.528Z,19.90
2018-04-13T12:34:17.920Z,18.20
2018-04-13T12:36:46.272Z,19.27
2018-04-13T12:39:13.874Z,19.27
2018-04-13T12:41:42.188Z,19.60
2018-04-13T12:44:09.801Z,19.07
2018-04-13T12:46:37.525Z,19.33
2018-04-13T12:49:05.122Z,20.20
2018-04-13T12:51:32.747Z,20.40
2018-04-13T12:54:00.446Z,20.53
2018-04-13T12:56:28.112Z,20.57
2018-04-13T12:58:55.768Z,21.13
2018-04-13T13:01:23.394Z,21.67
2018-04-13T13:03:51.022Z,24.77
2018-04-13T13:06:18.646Z,25.30
2018-04-13T13:08:46.938Z,24.80
2018-04-13T13:11:15.595Z,25.43
2018-04-13T13:13:43.214Z,23.53
2018-04-13T13:16:11.783Z,28.17
2018-04-13T13:18:40.351Z,27.87
2018-04-13T13:21:09.298Z,26.63
2018-04-13T13:23:40.375Z,29.27
2018-04-13T13:26:07.971Z,28.27
2018-04-13T13:28:35.645Z,28.73
2018-04-13T13:31:03.562Z,28.73
2018-04-13T13:33:31.754Z,28.40
2018-04-13T13:35:59.511Z,31.20
2018-04-13T13:38:27.738Z,31.67
2018-04-13T13:40:56.473Z,29.17
2018-04-13T13:43:24.895Z,31.20
2018-04-13T13:45:53.398Z,31.60
2018-04-13T13:48:25.504Z,31.90
2018-04-13T13:50:53.957Z,35.13
2018-04-13T13:53:21.629Z,36.80
2018-04-13T13:55:50.352Z,35.70
2018-04-13T13:58:18.749Z,37.17
2018-04-13T14:00:49.200Z,35.60
2018-04-13T14:03:16.850Z,37.57
2018-04-13T14:05:44.544Z,37.60
2018-04-13T14:08:13.485Z,39.77
2018-04-13T14:10:41.225Z,39.30
2018-04-13T14:13:09.538Z,40.70
2018-04-13T14:15:38.053Z,42.77
2018-04-13T14:18:05.659Z,40.90
2018-04-13T14:20:33.591Z,42.97
2018-04-13T14:23:01.212Z,43.30
2018-04-13T14:25:29.711Z,43.03
2018-04-13T14:27:57.349Z,43.13
2018-04-13T14:30:25.015Z,43.80
2018-04-13T14:32:53.330Z,48.13
2018-04-13T14:35:20.926Z,50.27
2018-04-13T14:37:48.551Z,45.10
2018-04-13T14:40:16.136Z,46.33
2018-04-13T14:42:45.449Z,46.27
2018-04-13T14:45:13.139Z,45.27
2018-04-13T14:47:40.975Z,44.20
2018-04-13T14:50:09.406Z,45.97
2018-04-13T14:52:36.971Z,45.47
2018-04-13T14:55:04.610Z,46.20
2018-04-13T14:57:32.205Z,47.83
2018-04-13T14:59:59.873Z,48.47
2018-04-13T15:02:27.545Z,45.80
2018-04-13T15:04:55.183Z,47.67
2018-04-13T15:07:22.772Z,44.67
2018-04-13T15:09:50.365Z,45.23
2018-04-13T15:12:18.016Z,46.80
2018-04-13T15:14:46.224Z,44.17
2018-04-13T15:17:14.150Z,44.83
2018-04-13T15:19:41.786Z,42.50
2018-04-13T15:22:10.152Z,42.57
2018-04-13T15:24:38.550Z,48.50
2018-04-13T15:27:06.146Z,48.50
2018-04-13T15:29:34.672Z,44.97
2018-04-13T15:32:02.322Z,45.93
2018-04-13T15:34:30.011Z,47.77
2018-04-13T15:36:57.687Z,48.00
2018-04-13T15:39:26.128Z,48.10
2018-04-13T15:41:53.765Z,50.07
2018-04-13T15:44:21.487Z,49.70
2018-04-13T15:46:49.089Z,48.53
2018-04-13T15:49:16.732Z,47.73
2018-04-13T15:51:45.120Z,47.87
2018-04-13T15:54:13.479Z,51.47
2018-04-13T15:56:41.118Z,50.97
2018-04-13T15:59:08.730Z,46.33
2018-04-13T16:01:36.379Z,52.80
2018-04-13T16:04:03.982Z,50.27
2018-04-13T16:06:31.607Z,47.37
2018-04-13T16:08:59.228Z,49.60
2018-04-13T16:11:26.828Z,47.97
2018-04-13T16:13:54.462Z,50.40
2018-04-13T16:16:22.120Z,50.53
2018-04-13T16:18:49.711Z,52.47
2018-04-13T16:21:17.310Z,50.67
2018-04-13T16:23:44.981Z,48.93
2018-04-13T16:26:12.588Z,50.73
2018-04-13T16:28:40.187Z,50.97
2018-04-13T16:31:07.831Z,48.40
2018-04-13T16:33:35.434Z,48.40
2018-04-13T16:36:03.074Z,46.63
2018-04-13T16:38:30.654Z,52.77
2018-04-13T16:40:58.264Z,55.27
2018-04-13T16:43:26.675Z,47.27
2018-04-13T16:45:54.308Z,48.20
2018-04-13T16:48:23.900Z,54.10
2018-04-13T16:50:51.603Z,49.23
2018-04-13T16:53:19.190Z,53.40
2018-04-13T16:55:46.786Z,49.40
2018-04-13T16:58:14.381Z,54.83
2018-04-13T17:00:42.742Z,52.00
2018-04-13T17:03:10.380Z,56.13
2018-04-13T17:05:38.141Z,50.93
2018-04-13T17:08:06.507Z,51.87
2018-04-13T17:10:34.084Z,53.77
2018-04-13T17:13:01.684Z,55.10
2018-04-13T17:15:29.306Z,57.23
2018-04-13T17:17:56.969Z,54.57
2018-04-13T17:20:24.594Z,51.87
2018-04-13T17:22:52.207Z,55.00
2018-04-13T17:25:19.796Z,62.63
2018-04-13T17:27:47.378Z,57.10
2018-04-13T17:30:14.978Z,58.43
2018-04-13T17:32:43.366Z,77.07
2018-04-13T17:35:10.939Z,61.80
2018-04-13T17:37:38.528Z,55.87
2018-04-13T17:40:06.113Z,80.23
2018-04-13T17:42:33.711Z,62.93
2018-04-13T17:45:02.178Z,58.67
2018-04-13T17:47:29.838Z,61.23
2018-04-13T17:49:57.400Z,56.87
2018-04-13T17:52:24.991Z,57.37
2018-04-13T17:54:53.337Z,54.90
2018-04-13T17:57:20.945Z,53.87
2018-04-13T17:59:49.287Z,55.03
2018-04-13T18:02:16.887Z,58.03
2018-04-13T18:04:44.491Z,58.17
2018-04-13T18:07:12.090Z,55.73
2018-04-13T18:09:39.690Z,57.47
2018-04-13T18:12:08.513Z,60.97
2018-04-13T18:14:36.113Z,58.07
2018-04-13T18:17:04.662Z,57.83
2018-04-13T18:19:32.238Z,58.83
2018-04-13T18:22:00.717Z,63.10
2018-04-13T18:24:28.315Z,58.17
2018-04-13T18:26:55.897Z,59.57
2018-04-13T18:29:23.477Z,56.97
2018-04-13T18:31:51.949Z,59.17
2018-04-13T18:34:19.540Z,60.77
2018-04-13T18:36:47.180Z,67.40
2018-04-13T18:39:14.779Z,88.27
2018-04-13T18:41:42.377Z,100.10
2018-04-13T18:44:09.984Z,73.63
2018-04-13T18:46:37.574Z,69.17
2018-04-13T18:49:05.147Z,73.90
2018-04-13T18:51:32.735Z,68.40
2018-04-13T18:54:00.330Z,59.83
2018-04-13T18:56:27.921Z,58.40
2018-04-13T18:58:56.986Z,63.23
2018-04-13T19:01:24.565Z,59.13
2018-04-13T19:03:52.237Z,60.43
2018-04-13T19:06:19.820Z,57.13
2018-04-13T19:08:47.390Z,60.77
2018-04-13T19:11:15.756Z,58.00
2018-04-13T19:13:44.096Z,64.23
2018-04-13T19:16:11.668Z,59.00
2018-04-13T19:18:39.271Z,60.87
2018-04-13T19:21:07.699Z,62.47
2018-04-13T19:23:35.304Z,62.43
2018-04-13T19:26:02.881Z,65.90
2018-04-13T19:28:31.235Z,63.30
2018-04-13T19:30:58.795Z,61.53
2018-04-13T19:33:27.219Z,65.07
2018-04-13T19:35:55.662Z,60.37
2018-04-13T19:38:23.237Z,65.07
2018-04-13T19:40:51.690Z,67.03
2018-04-13T19:43:19.260Z,63.43
2018-04-13T19:45:46.896Z,67.50
2018-04-13T19:48:14.458Z,61.13
2018-04-13T19:50:42.108Z,62.17
2018-04-13T19:53:10.462Z,65.30
2018-04-13T19:55:38.097Z,65.40
2018-04-13T19:58:06.468Z,65.13
2018-04-13T20:00:34.043Z,63.67
2018-04-13T20:03:01.657Z,80.67
2018-04-13T20:05:29.942Z,78.77
2018-04-13T20:07:57.530Z,81.90
2018-04-13T20:10:25.882Z,86.73
2018-04-13T20:12:53.596Z,95.43
2018-04-13T20:15:28.159Z,90.60
2018-04-13T20:17:56.609Z,95.10
2018-04-13T20:20:24.196Z,96.63
2018-04-13T20:22:51.786Z,101.60
2018-04-13T20:25:19.436Z,102.47
2018-04-13T20:27:47.072Z,94.40
2018-04-13T20:30:15.456Z,95.47
2018-04-13T20:32:43.135Z,92.77
2018-04-13T20:35:10.788Z,94.77
2018-04-13T20:37:38.466Z,91.87
2018-04-13T20:40:07.334Z,78.90
2018-04-13T20:42:34.954Z,79.80
2018-04-13T20:45:02.561Z,83.80
2018-04-13T20:47:30.135Z,82.03
2018-04-13T20:49:57.711Z,80.67
2018-04-13T20:52:25.343Z,79.60
2018-04-13T20:54:52.923Z,74.60
2018-04-13T20:57:21.289Z,72.60
2018-04-13T20:59:48.877Z,75.83
2018-04-13T21:02:16.459Z,74.73
2018-04-13T21:04:44.071Z,76.53
2018-04-13T21:07:11.653Z,78.43
2018-04-13T21:09:39.220Z,80.50
2018-04-13T21:12:07.557Z,75.63
2018-04-13T21:14:35.147Z,75.83
2018-04-13T21:17:03.532Z,85.27
2018-04-13T21:19:31.992Z,75.33
2018-04-13T21:21:59.580Z,76.27
2018-04-13T21:24:27.188Z,72.63
2018-04-13T21:26:54.764Z,81.97
2018-04-13T21:29:22.708Z,84.60
2018-04-13T21:31:51.059Z,73.40
2018-04-13T21:34:18.648Z,73.20
2018-04-13T21:36:46.220Z,78.20
2018-04-13T21:39:13.821Z,73.27
2018-04-13T21:41:42.580Z,71.30
2018-04-13T21:44:10.157Z,74.80
2018-04-13T21:46:37.715Z,76.10
2018-04-13T21:49:05.305Z,78.70
2018-04-13T21:51:33.129Z,78.40
2018-04-13T21:54:00.706Z,69.17
2018-04-13T21:56:29.028Z,71.07
2018-04-13T21:58:57.387Z,74.13
2018-04-13T22:01:24.962Z,78.03
2018-04-13T22:03:53.096Z,76.43
2018-04-13T22:06:20.693Z,76.20
2018-04-13T22:08:49.479Z,73.93
2018-04-13T22:11:19.168Z,79.33
2018-04-13T22:13:46.784Z,74.70
2018-04-13T22:16:14.352Z,79.20
2018-04-13T22:18:43.316Z,77.73
2018-04-13T22:21:11.686Z,81.90
2018-04-13T22:23:40.025Z,82.73
2018-04-13T22:26:07.624Z,82.27
2018-04-13T22:28:35.224Z,80.87
2018-04-13T22:31:02.901Z,79.73
2018-04-13T22:33:30.473Z,76.67
2018-04-13T22:35:58.039Z,87.07
2018-04-13T22:38:25.613Z,83.83
2018-04-13T22:40:53.188Z,89.37
2018-04-13T22:43:20.761Z,91.30
2018-04-13T22:45:48.333Z,96.17
2018-04-13T22:48:15.954Z,94.97
2018-04-13T22:50:43.536Z,96.23
2018-04-13T22:53:11.106Z,105.93
2018-04-13T22:55:38.702Z,104.47
2018-04-13T22:58:06.272Z,112.30
2018-04-13T23:00:33.872Z,105.57
2018-04-13T23:03:01.471Z,93.67
2018-04-13T23:05:29.089Z,95.80
2018-04-13T23:07:57.435Z,98.43
2018-04-13T23:10:25.025Z,90.10
2018-04-13T23:12:52.587Z,93.20
2018-04-13T23:15:20.978Z,91.73
2018-04-13T23:17:49.728Z,85.60
2018-04-13T23:20:17.305Z,89.10
2018-04-13T23:22:44.868Z,85.77
2018-04-13T23:25:12.454Z,87.40
2018-04-13T23:27:40.026Z,90.63
2018-04-13T23:30:07.593Z,92.27
2018-04-13T23:32:35.936Z,91.07
2018-04-13T23:35:03.565Z,90.87
2018-04-13T23:37:31.150Z,86.50
2018-04-13T23:39:58.730Z,93.00
2018-04-13T23:42:27.032Z,81.50
2018-04-13T23:44:54.625Z,82.63
2018-04-13T23:47:23.769Z,82.37
2018-04-13T23:49:51.413Z,87.37
2018-04-13T23:52:18.988Z,79.37
2018-04-13T23:54:46.565Z,83.93
2018-04-13T23:57:14.131Z,77.73
2018-04-13T23:59:41.723Z,85.17
